Terminal Aerodrome Forecast
Issued by NWS Caribou, ME

Home | Current Version | Previous Version | Text Only | Print | Product List | Glossary On
Versions: 1 2 3 4 5 6 7 8 9 10 11 12 13 14 15 16 17 18 19 20 21 22 23 24 25 26 27 28 29 30 31 32 33 34 35 36 37 38 39 40 41 42 43 44 45 46 47 48 49 50
100
FTUS41 KCAR 212320
TAFBGR
TAF
KBGR 212320Z 2200/2224 16009KT 3SM -RA BR BKN006
     FM220900 00000KT 1SM BR OVC007
     FM221200 02004KT P6SM OVC010
     FM221600 03006KT P6SM VCSH OVC020
     FM221800 03007KT 5SM -RA OVC010=

USA.gov is the U.S. government's official web portal to all federal, state and local government web resources and services.